createdAt,value
2018-09-13T00:02:15.516Z,101569.00
2018-09-13T00:07:08.825Z,101566.00
2018-09-13T00:12:02.166Z,101557.00
2018-09-13T00:16:55.379Z,101555.00
2018-09-13T00:21:48.580Z,101549.00
2018-09-13T00:26:41.819Z,101547.00
2018-09-13T00:31:35.044Z,101567.00
2018-09-13T00:36:28.260Z,101569.00
2018-09-13T00:41:21.505Z,101565.00
2018-09-13T00:46:14.768Z,101570.00
2018-09-13T00:51:08.208Z,101566.00
2018-09-13T00:56:01.428Z,101560.00
2018-09-13T01:00:54.702Z,101573.00
2018-09-13T01:05:47.931Z,101574.00
2018-09-13T01:10:41.196Z,101571.00
2018-09-13T01:15:34.442Z,101568.00
2018-09-13T01:20:27.771Z,101557.00
2018-09-13T01:25:21.035Z,101560.00
2018-09-13T01:30:14.248Z,101544.00
2018-09-13T01:35:07.511Z,101545.00
2018-09-13T01:40:00.749Z,101545.00
2018-09-13T01:44:53.980Z,101545.00
2018-09-13T01:49:47.216Z,101521.00
2018-09-13T01:54:40.403Z,101518.00
2018-09-13T01:59:33.634Z,101514.00
2018-09-13T02:04:26.886Z,101515.00
2018-09-13T02:09:20.075Z,101511.00
2018-09-13T02:14:13.317Z,101502.00
2018-09-13T02:19:06.827Z,101504.00
2018-09-13T02:24:00.078Z,101506.00
2018-09-13T02:28:54.283Z,101497.00
2018-09-13T02:33:47.518Z,101504.00
2018-09-13T02:38:40.811Z,101501.00
2018-09-13T02:43:34.067Z,101491.00
2018-09-13T02:48:27.296Z,101488.00
2018-09-13T02:53:20.786Z,101499.00
2018-09-13T02:58:13.984Z,101499.00
2018-09-13T03:03:07.275Z,101504.00
2018-09-13T03:08:00.511Z,101492.00
2018-09-13T03:12:53.726Z,101488.00
2018-09-13T03:17:47.040Z,101484.00
2018-09-13T03:22:40.272Z,101474.00
2018-09-13T03:27:34.737Z,101468.00
2018-09-13T03:32:28.722Z,101463.00
2018-09-13T03:37:21.953Z,101450.00
2018-09-13T03:42:15.198Z,101452.00
2018-09-13T03:47:08.471Z,101452.00
2018-09-13T03:52:01.701Z,101464.00
2018-09-13T03:56:54.902Z,101484.00
2018-09-13T04:01:48.136Z,101478.00
2018-09-13T04:06:41.400Z,101474.00
2018-09-13T04:11:34.649Z,101475.00
2018-09-13T04:16:27.865Z,101474.00
2018-09-13T04:21:21.092Z,101482.00
2018-09-13T04:26:14.339Z,101490.00
2018-09-13T04:31:07.573Z,101489.00
2018-09-13T04:36:00.786Z,101481.00
2018-09-13T04:40:54.720Z,101487.00
2018-09-13T04:45:48.031Z,101491.00
2018-09-13T04:50:41.237Z,101495.00
2018-09-13T04:55:34.460Z,101494.00
2018-09-13T05:00:27.685Z,101486.00
2018-09-13T05:05:20.963Z,101487.00
2018-09-13T05:10:14.188Z,101492.00
2018-09-13T05:15:08.104Z,101487.00
2018-09-13T05:20:01.447Z,101495.00
2018-09-13T05:24:54.639Z,101499.00
2018-09-13T05:29:47.883Z,101504.00
2018-09-13T05:34:41.145Z,101507.00
2018-09-13T05:39:34.403Z,101506.00
2018-09-13T05:44:27.593Z,101512.00
2018-09-13T05:49:20.848Z,101515.00
2018-09-13T05:54:14.049Z,101521.00
2018-09-13T05:59:07.412Z,101522.00
2018-09-13T06:04:00.627Z,101519.00
2018-09-13T06:08:53.873Z,101516.00
2018-09-13T06:13:47.100Z,101524.00
2018-09-13T06:18:40.375Z,101520.00
2018-09-13T06:23:33.699Z,101522.00
2018-09-13T06:28:26.919Z,101520.00
2018-09-13T06:33:20.150Z,101529.00
2018-09-13T06:38:13.395Z,101523.00
2018-09-13T06:43:06.652Z,101519.00
2018-09-13T06:47:59.915Z,101524.00
2018-09-13T06:52:53.173Z,101523.00
2018-09-13T06:57:46.417Z,101519.00
2018-09-13T07:02:39.641Z,101530.00
2018-09-13T07:07:32.941Z,101539.00
2018-09-13T07:12:26.158Z,101544.00
2018-09-13T07:17:19.377Z,101542.00
2018-09-13T07:22:12.617Z,101542.00
2018-09-13T07:27:05.951Z,101545.00
2018-09-13T07:32:00.172Z,101540.00
2018-09-13T07:36:53.526Z,101542.00
2018-09-13T07:41:46.708Z,101542.00
2018-09-13T07:46:40.518Z,101555.00
2018-09-13T07:51:33.792Z,101551.00
2018-09-13T07:56:27.140Z,101547.00
2018-09-13T08:01:20.357Z,101548.00
2018-09-13T08:06:14.231Z,101546.00
2018-09-13T08:11:07.488Z,101549.00
2018-09-13T08:16:00.889Z,101551.00
2018-09-13T08:20:54.070Z,101557.00
2018-09-13T08:25:47.636Z,101562.00
2018-09-13T08:30:40.891Z,101569.00
2018-09-13T08:35:34.122Z,101572.00
2018-09-13T08:40:27.744Z,101565.00
2018-09-13T08:45:20.994Z,101563.00
2018-09-13T08:50:14.229Z,101573.00
2018-09-13T08:55:09.455Z,101581.00
2018-09-13T09:00:03.215Z,101577.00
2018-09-13T09:04:56.469Z,101577.00
2018-09-13T09:09:49.697Z,101575.00
2018-09-13T09:14:42.947Z,101579.00
2018-09-13T09:19:36.255Z,101576.00
2018-09-13T09:24:29.482Z,101576.00
2018-09-13T09:29:22.745Z,101579.00
2018-09-13T09:34:15.987Z,101583.00
2018-09-13T09:39:12.359Z,101575.00
2018-09-13T09:44:05.805Z,101577.00
2018-09-13T09:48:59.054Z,101574.00
2018-09-13T09:53:52.246Z,101578.00
2018-09-13T09:58:45.477Z,101577.00
2018-09-13T10:03:38.770Z,101581.00
2018-09-13T10:08:32.040Z,101581.00
2018-09-13T10:13:25.298Z,101577.00
2018-09-13T10:18:24.241Z,101569.00
2018-09-13T10:23:23.127Z,101572.00
2018-09-13T10:28:22.015Z,101576.00
2018-09-13T10:33:20.970Z,101587.00
2018-09-13T10:38:19.803Z,101590.00
2018-09-13T10:43:18.571Z,101579.00
2018-09-13T10:48:17.609Z,101577.00
2018-09-13T10:53:18.143Z,101577.00
2018-09-13T10:58:11.405Z,101572.00
2018-09-13T11:03:04.709Z,101584.00
2018-09-13T11:07:57.941Z,101576.00
2018-09-13T11:12:56.944Z,101565.00
2018-09-13T11:17:50.189Z,101570.00
2018-09-13T11:22:43.523Z,101563.00
2018-09-13T11:27:36.874Z,101560.00
2018-09-13T11:32:30.109Z,101554.00
2018-09-13T11:37:23.346Z,101556.00
2018-09-13T11:42:16.591Z,101565.00
2018-09-13T11:47:09.837Z,101562.00
2018-09-13T11:52:03.056Z,101561.00
2018-09-13T11:56:56.311Z,101559.00
2018-09-13T12:01:49.576Z,101560.00
2018-09-13T12:06:43.349Z,101558.00
2018-09-13T12:11:36.670Z,101556.00
2018-09-13T12:16:29.963Z,101556.00
2018-09-13T12:21:23.198Z,101554.00
2018-09-13T12:26:16.484Z,101563.00
2018-09-13T12:31:09.731Z,101555.00
2018-09-13T12:36:03.011Z,101559.00
2018-09-13T12:40:56.482Z,101553.00
2018-09-13T12:45:49.999Z,101550.00
2018-09-13T12:50:44.407Z,101546.00
2018-09-13T12:55:43.280Z,101537.00
2018-09-13T13:00:36.553Z,101533.00
2018-09-13T13:05:29.825Z,101530.00
2018-09-13T13:10:23.064Z,101528.00
2018-09-13T13:15:16.338Z,101535.00
2018-09-13T13:20:09.605Z,101537.00
2018-09-13T13:25:02.880Z,101529.00
2018-09-13T13:29:56.091Z,101522.00
2018-09-13T13:34:49.389Z,101518.00
2018-09-13T13:39:42.654Z,101511.00
2018-09-13T13:44:36.006Z,101520.00
2018-09-13T13:49:29.221Z,101512.00
2018-09-13T13:54:22.840Z,101504.00
2018-09-13T13:59:16.078Z,101498.00
2018-09-13T14:04:09.332Z,101502.00
2018-09-13T14:09:02.657Z,101503.00
2018-09-13T14:13:55.896Z,101493.00
2018-09-13T14:18:49.174Z,101491.00
2018-09-13T14:23:42.474Z,101491.00
2018-09-13T14:28:35.640Z,101494.00
2018-09-13T14:33:28.832Z,101491.00
2018-09-13T14:38:22.081Z,101483.00
2018-09-13T14:43:15.308Z,101486.00
2018-09-13T14:48:08.545Z,101477.00
2018-09-13T14:53:01.773Z,101476.00
2018-09-13T14:57:55.014Z,101469.00
2018-09-13T15:02:48.295Z,101471.00
2018-09-13T15:07:41.579Z,101475.00
2018-09-13T15:12:34.874Z,101473.00
2018-09-13T15:17:28.168Z,101473.00
2018-09-13T15:22:21.416Z,101472.00
2018-09-13T15:27:14.645Z,101469.00
2018-09-13T15:32:07.916Z,101465.00
2018-09-13T15:37:01.212Z,101473.00
2018-09-13T15:41:54.431Z,101468.00
2018-09-13T15:46:47.675Z,101466.00
2018-09-13T15:51:40.898Z,101467.00
2018-09-13T15:56:34.773Z,101464.00
2018-09-13T16:01:28.023Z,101464.00
2018-09-13T16:06:21.260Z,101466.00
2018-09-13T16:11:14.516Z,101467.00
2018-09-13T16:16:08.106Z,101471.00
2018-09-13T16:21:01.337Z,101463.00
2018-09-13T16:25:54.595Z,101463.00
2018-09-13T16:30:47.826Z,101461.00
2018-09-13T16:35:47.178Z,101461.00
2018-09-13T16:40:46.300Z,101458.00
2018-09-13T16:45:40.258Z,101455.00
2018-09-13T16:50:33.492Z,101451.00
2018-09-13T16:55:26.859Z,101466.00
2018-09-13T17:00:22.025Z,101466.00
2018-09-13T17:05:15.329Z,101470.00
2018-09-13T17:10:08.906Z,101472.00
2018-09-13T17:15:02.186Z,101475.00
2018-09-13T17:19:55.451Z,101465.00
2018-09-13T17:24:48.683Z,101462.00
2018-09-13T17:29:41.947Z,101467.00
2018-09-13T17:34:35.166Z,101466.00
2018-09-13T17:39:28.366Z,101470.00
2018-09-13T17:44:21.649Z,101471.00
2018-09-13T17:49:14.871Z,101474.00
2018-09-13T17:54:08.107Z,101473.00
2018-09-13T17:59:01.383Z,101477.00
2018-09-13T18:03:54.821Z,101478.00
2018-09-13T18:08:48.164Z,101479.00
2018-09-13T18:13:41.403Z,101491.00
2018-09-13T18:18:34.691Z,101491.00
2018-09-13T18:23:27.948Z,101502.00
2018-09-13T18:28:21.163Z,101508.00
2018-09-13T18:33:14.605Z,101510.00
2018-09-13T18:38:08.046Z,101517.00
2018-09-13T18:43:01.257Z,101520.00
2018-09-13T18:47:54.568Z,101525.00
2018-09-13T18:52:47.884Z,101524.00
2018-09-13T18:57:41.147Z,101529.00
2018-09-13T19:02:34.407Z,101528.00
2018-09-13T19:07:27.739Z,101533.00
2018-09-13T19:12:20.975Z,101542.00
2018-09-13T19:17:14.225Z,101541.00
2018-09-13T19:22:07.488Z,101545.00
2018-09-13T19:27:00.707Z,101544.00
2018-09-13T19:31:53.961Z,101550.00
2018-09-13T19:36:47.236Z,101549.00
2018-09-13T19:41:40.897Z,101554.00
2018-09-13T19:46:34.216Z,101563.00
2018-09-13T19:51:27.428Z,101563.00
2018-09-13T19:56:20.709Z,101567.00
2018-09-13T20:01:13.988Z,101567.00
2018-09-13T20:06:07.370Z,101569.00
2018-09-13T20:11:00.621Z,101569.00
2018-09-13T20:15:53.885Z,101574.00
2018-09-13T20:20:48.390Z,101574.00
2018-09-13T20:25:41.730Z,101572.00
2018-09-13T20:30:34.992Z,101570.00
2018-09-13T20:35:28.339Z,101568.00
2018-09-13T20:40:21.536Z,101568.00
2018-09-13T20:45:14.845Z,101566.00
2018-09-13T20:50:08.133Z,101572.00
2018-09-13T20:55:01.377Z,101564.00
2018-09-13T20:59:54.603Z,101561.00
2018-09-13T21:04:47.933Z,101563.00
2018-09-13T21:09:41.153Z,101566.00
2018-09-13T21:14:34.412Z,101571.00
2018-09-13T21:19:27.681Z,101565.00
2018-09-13T21:24:20.962Z,101572.00
2018-09-13T21:29:14.259Z,101572.00
2018-09-13T21:34:07.480Z,101574.00
2018-09-13T21:39:00.777Z,101573.00
2018-09-13T21:43:54.035Z,101573.00
2018-09-13T21:48:47.235Z,101577.00
2018-09-13T21:53:40.495Z,101571.00
2018-09-13T21:58:33.737Z,101571.00
2018-09-13T22:03:27.137Z,101571.00
2018-09-13T22:08:20.386Z,101574.00
2018-09-13T22:13:13.624Z,101578.00
2018-09-13T22:18:06.905Z,101587.00
2018-09-13T22:23:00.142Z,101596.00
2018-09-13T22:27:53.391Z,101597.00
2018-09-13T22:32:46.647Z,101601.00
2018-09-13T22:37:39.893Z,101605.00
2018-09-13T22:42:34.276Z,101607.00
2018-09-13T22:47:27.726Z,101610.00
2018-09-13T22:52:20.972Z,101612.00
2018-09-13T22:57:14.259Z,101607.00
2018-09-13T23:02:07.503Z,101610.00
2018-09-13T23:07:00.750Z,101614.00
2018-09-13T23:11:54.021Z,101608.00
2018-09-13T23:16:49.579Z,101607.00
2018-09-13T23:21:40.557Z,101613.00
2018-09-13T23:26:34.421Z,101621.00
2018-09-13T23:31:27.657Z,101615.00
2018-09-13T23:36:21.115Z,101611.00
2018-09-13T23:41:14.337Z,101608.00
2018-09-13T23:46:07.605Z,101611.00
2018-09-13T23:51:00.876Z,101617.00
2018-09-13T23:55:54.091Z,101618.00
